Time;durP1;ratioP1;P1;durP2;ratioP2;P2;SDS_P1;SDS_P2;PMS_P1;PMS_P2;Temp;Humidity;BMP_temperature;BMP_pressure;BME280_temperature;BME280_humidity;BME280_pressure;Samples;Min_cycle;Max_cycle;Signal;HPM_P1;HPM_P2
2023/02/15 00:01:57;;;;;;;;;;;;;;;0.40;60.95;100224.16;4865592;29;19948;-89
2023/02/15 00:04:45;;;;;;;;;;;;;;;0.38;59.75;100231.78;4844317;29;19924;-87
2023/02/15 00:07:31;;;;;;;;;;;;;;;0.41;60.08;100231.03;4840353;29;19924;-89
2023/02/15 00:10:17;;;;;;;;;;;;;;;0.48;60.26;100235.59;4838747;29;19924;-89
2023/02/15 00:13:17;;;;;;;;;;;;;;;0.49;60.38;100232.22;4858704;29;19928;-89
2023/02/15 00:16:33;;;;;;;;;;;;;;;0.47;59.85;100241.50;4830424;29;20012;-89
2023/02/15 00:19:41;;;;;;;;;;;;;;;0.39;60.21;100240.31;4844929;29;19925;-87
2023/02/15 00:22:48;;;;;;;;;;;;;;;0.41;60.62;100236.16;4814301;29;19925;-87
2023/02/15 00:25:50;;;;;;;;;;;;;;;0.41;60.85;100234.47;4803580;29;19925;-90
2023/02/15 00:28:25;;;;;;;;;;;;;;;0.40;60.41;100234.41;4847577;29;19947;-88
2023/02/15 00:30:57;;;;;;;;;;;;;;;0.46;60.15;100234.66;4832529;29;20023;-89
2023/02/15 00:33:43;;;;;;;;;;;;;;;0.42;60.67;100230.22;4831030;29;19967;-86
2023/02/15 00:36:27;;;;;;;;;;;;;;;0.38;60.39;100241.13;4847574;29;19964;-86
2023/02/15 00:38:59;;;;;;;;;;;;;;;0.29;60.15;100234.88;4832612;29;19924;-86
2023/02/15 00:41:26;;;;;;;;;;;;;;;0.36;60.55;100242.75;4847476;29;20085;-86
2023/02/15 00:43:53;;;;;;;;;;;;;;;0.33;60.44;100240.97;4832277;29;19925;-87
2023/02/15 00:46:23;;;;;;;;;;;;;;;0.34;60.35;100249.50;4839628;29;20410;-88
2023/02/15 00:49:21;;;;;;;;;;;;;;;0.39;60.47;100242.88;4872978;29;19924;-85
2023/02/15 00:51:53;;;;;;;;;;;;;;;0.43;60.17;100239.66;4855078;29;19951;-85
2023/02/15 00:54:38;;;;;;;;;;;;;;;0.45;60.25;100248.25;4871284;29;19924;-85
2023/02/15 00:57:08;;;;;;;;;;;;;;;0.48;59.68;100248.38;4867649;29;19928;-85
2023/02/15 01:03:46;;;;;;;;;;;;;;;0.46;59.78;100244.88;4805563;29;19925;-86
2023/02/15 01:06:21;;;;;;;;;;;;;;;0.54;60.15;100246.06;4841238;29;19991;-87
2023/02/15 01:08:50;;;;;;;;;;;;;;;0.53;60.06;100246.88;4853650;29;19927;-85
2023/02/15 01:11:27;;;;;;;;;;;;;;;0.55;60.51;100242.66;4855590;29;19939;-87
2023/02/15 01:13:54;;;;;;;;;;;;;;;0.60;60.64;100250.56;4837622;29;20132;-88
2023/02/15 01:16:34;;;;;;;;;;;;;;;0.54;59.44;100256.31;4836113;29;19924;-86
2023/02/15 01:19:46;;;;;;;;;;;;;;;0.45;60.58;100254.25;4823857;29;20370;-86
2023/02/15 01:22:22;;;;;;;;;;;;;;;0.50;59.84;100256.13;4847495;29;19943;-87
2023/02/15 01:25:17;;;;;;;;;;;;;;;0.51;60.11;100253.63;4846651;29;19934;-89
2023/02/15 01:27:56;;;;;;;;;;;;;;;0.48;59.86;100255.19;4847081;29;19928;-86
2023/02/15 01:30:25;;;;;;;;;;;;;;;0.41;60.08;100264.31;4833494;29;19924;-85
2023/02/15 01:33:11;;;;;;;;;;;;;;;0.48;60.58;100262.84;4853687;29;19924;-86
2023/02/15 01:36:17;;;;;;;;;;;;;;;0.54;60.57;100252.88;4833430;29;19924;-87
2023/02/15 01:39:36;;;;;;;;;;;;;;;0.47;59.48;100248.31;4824927;29;19924;-87
2023/02/15 01:42:10;;;;;;;;;;;;;;;0.43;60.33;100263.56;4832512;29;19924;-87
2023/02/15 01:45:26;;;;;;;;;;;;;;;;;;;;;
2023/02/15 01:48:26;;;;;;;;;;;;;;;0.49;59.94;100267.16;4867302;29;19931;-86
2023/02/15 01:51:30;;;;;;;;;;;;;;;0.54;60.53;100276.81;4851047;29;19999;-86
2023/02/15 01:54:25;;;;;;;;;;;;;;;0.48;60.44;100262.84;4838514;29;19924;-87
2023/02/15 01:56:57;;;;;;;;;;;;;;;0.45;60.49;100267.03;4845963;29;19989;-82
2023/02/15 01:59:26;;;;;;;;;;;;;;;0.39;60.15;100269.38;4844066;29;19991;-81
2023/02/15 02:01:58;;;;;;;;;;;;;;;0.32;60.34;100277.63;4865984;29;20801;-83
2023/02/15 02:04:35;;;;;;;;;;;;;;;0.29;60.22;100273.25;4843011;29;19984;-85
2023/02/15 02:07:04;;;;;;;;;;;;;;;0.32;60.05;100272.50;4818184;29;19931;-85
2023/02/15 02:09:32;;;;;;;;;;;;;;;0.29;59.95;100274.94;4852674;29;19935;-85
2023/02/15 02:12:00;;;;;;;;;;;;;;;0.37;60.15;100280.34;4866667;29;19951;-84
2023/02/15 02:14:40;;;;;;;;;;;;;;;0.41;60.73;100284.78;4834844;29;19931;-85
2023/02/15 02:17:29;;;;;;;;;;;;;;;0.38;60.08;100277.88;4850891;29;19932;-86
2023/02/15 02:20:15;;;;;;;;;;;;;;;0.24;60.41;100279.88;4835034;29;20019;-83
2023/02/15 02:23:08;;;;;;;;;;;;;;;0.24;59.71;100284.09;4851480;29;19925;-85
2023/02/15 02:25:35;;;;;;;;;;;;;;;0.25;60.20;100293.53;4849649;29;19924;-85
2023/02/15 02:28:30;;;;;;;;;;;;;;;0.29;60.12;100293.75;4834099;29;19935;-84
2023/02/15 02:31:08;;;;;;;;;;;;;;;0.20;59.75;100293.34;4865322;29;19951;-86
2023/02/15 02:33:46;;;;;;;;;;;;;;;0.17;60.12;100290.66;4849308;29;19925;-85
2023/02/15 02:36:27;;;;;;;;;;;;;;;0.22;59.88;100296.00;4833625;29;19932;-85
2023/02/15 02:39:04;;;;;;;;;;;;;;;0.22;59.69;100296.84;4849166;29;19925;-83
2023/02/15 02:41:35;;;;;;;;;;;;;;;0.24;60.17;100302.91;4851724;29;20141;-85
2023/02/15 02:44:04;;;;;;;;;;;;;;;0.29;59.79;100292.84;4850466;29;19936;-85
2023/02/15 02:46:40;;;;;;;;;;;;;;;0.34;59.83;100305.84;4869955;29;19932;-84
2023/02/15 02:49:27;;;;;;;;;;;;;;;0.28;59.79;100291.09;4866997;29;19954;-85
2023/02/15 02:52:05;;;;;;;;;;;;;;;0.22;59.69;100307.09;4863479;29;19978;-84
2023/02/15 02:54:35;;;;;;;;;;;;;;;0.19;60.22;100301.00;4839242;29;19925;-85
2023/02/15 02:57:03;;;;;;;;;;;;;;;0.24;59.61;100302.03;4826373;29;19928;-84
2023/02/15 02:59:34;;;;;;;;;;;;;;;0.22;60.45;100301.97;4837130;29;20411;-86
2023/02/15 03:02:13;;;;;;;;;;;;;;;0.25;60.45;100298.66;4837043;29;20094;-85
2023/02/15 03:04:45;;;;;;;;;;;;;;;0.20;59.16;100308.72;4822539;29;19924;-83
2023/02/15 03:07:25;;;;;;;;;;;;;;;0.20;59.88;100313.84;4821852;29;19932;-86
2023/02/15 03:09:55;;;;;;;;;;;;;;;0.13;59.91;100305.03;4817749;29;19925;-86
2023/02/15 03:12:31;;;;;;;;;;;;;;;0.13;59.47;100309.25;4836143;29;19971;-87
2023/02/15 03:15:04;;;;;;;;;;;;;;;0.14;60.07;100308.44;4851482;29;19977;-85
2023/02/15 03:17:43;;;;;;;;;;;;;;;0.14;59.32;100304.22;4838269;29;19943;-86
2023/02/15 03:20:15;;;;;;;;;;;;;;;0.22;59.90;100313.91;4837367;29;19925;-85
2023/02/15 03:22:51;;;;;;;;;;;;;;;0.20;59.03;100307.84;4822433;29;19924;-85
2023/02/15 03:25:20;;;;;;;;;;;;;;;0.16;59.63;100309.41;4820586;29;19936;-84
2023/02/15 03:27:54;;;;;;;;;;;;;;;0.11;59.01;100306.66;4845460;29;20368;-83
2023/02/15 03:30:22;;;;;;;;;;;;;;;0.04;59.64;100314.88;4865980;29;19924;-84
2023/02/15 03:32:56;;;;;;;;;;;;;;;0.12;59.94;100312.63;4856201;29;20403;-81
2023/02/15 03:35:24;;;;;;;;;;;;;;;0.14;59.22;100300.78;4842753;29;19961;-84
2023/02/15 03:37:53;;;;;;;;;;;;;;;0.10;59.46;100311.72;4844576;29;19932;-81
2023/02/15 03:45:08;;;;;;;;;;;;;;;0.06;59.61;100317.53;4755857;30;19926;-82
2023/02/15 03:47:40;;;;;;;;;;;;;;;0.03;59.64;100312.25;4770490;30;20348;-80
2023/02/15 03:53:48;;;;;;;;;;;;;;;0.10;58.91;100319.41;4797790;29;19929;-82
2023/02/15 04:01:56;;;;;;;;;;;;;;;0.10;58.86;100314.28;4791299;29;19986;-81
2023/02/15 04:07:44;;;;;;;;;;;;;;;-0.01;59.20;100330.03;4856970;29;19930;-82
2023/02/15 04:13:39;;;;;;;;;;;;;;;-0.07;58.79;100332.34;4861540;29;20579;-83
2023/02/15 04:16:05;;;;;;;;;;;;;;;-0.09;59.41;100338.22;4861425;29;20384;-80
2023/02/15 04:27:31;;;;;;;;;;;;;;;-0.08;58.09;100347.63;4860399;29;20055;-84
2023/02/15 04:29:57;;;;;;;;;;;;;;;-0.10;58.79;100347.56;4860562;29;19932;-79
2023/02/15 04:32:22;;;;;;;;;;;;;;;-0.07;58.45;100351.94;4860677;29;20008;-83
2023/02/15 04:34:48;;;;;;;;;;;;;;;-0.19;58.18;100342.06;4844956;29;20361;-82
2023/02/15 04:37:14;;;;;;;;;;;;;;;-0.16;59.04;100340.50;4846573;29;19931;-83
2023/02/15 04:39:40;;;;;;;;;;;;;;;-0.15;58.41;100343.94;4847318;29;19935;-85
2023/02/15 04:42:06;;;;;;;;;;;;;;;-0.10;58.76;100339.88;4846638;29;20316;-85
2023/02/15 04:44:32;;;;;;;;;;;;;;;-0.11;59.10;100343.25;4862120;29;19931;-83
2023/02/15 04:46:58;;;;;;;;;;;;;;;-0.10;58.60;100354.38;4848627;29;19924;-84
2023/02/15 04:49:24;;;;;;;;;;;;;;;-0.15;57.85;100346.50;4845987;29;20353;-85
2023/02/15 04:51:51;;;;;;;;;;;;;;;-0.22;58.91;100347.91;4871008;29;19931;-86
2023/02/15 04:54:20;;;;;;;;;;;;;;;-0.23;58.23;100358.97;4855171;29;19928;-82
2023/02/15 04:56:46;;;;;;;;;;;;;;;-0.15;58.52;100354.19;4854221;29;19953;-84
2023/02/15 04:59:14;;;;;;;;;;;;;;;-0.15;58.19;100356.75;4849668;29;19955;-84
2023/02/15 05:01:40;;;;;;;;;;;;;;;-0.19;58.65;100349.72;4853281;29;19928;-82
2023/02/15 05:04:09;;;;;;;;;;;;;;;-0.21;58.85;100341.97;4853549;29;19936;-83
2023/02/15 05:06:39;;;;;;;;;;;;;;;-0.15;59.09;100346.50;4839982;29;19924;-81
2023/02/15 05:09:07;;;;;;;;;;;;;;;-0.10;58.83;100350.09;4868229;29;19993;-81
2023/02/15 05:11:34;;;;;;;;;;;;;;;-0.02;58.74;100343.66;4850764;29;19928;-80
2023/02/15 05:14:00;;;;;;;;;;;;;;;0.01;58.62;100344.59;4851537;29;19932;-82
2023/02/15 05:16:28;;;;;;;;;;;;;;;0.01;58.14;100342.03;4852324;29;19928;-79
2023/02/15 05:18:54;;;;;;;;;;;;;;;0.02;58.98;100348.91;4851992;29;19932;-80
2023/02/15 05:21:34;;;;;;;;;;;;;;;-0.01;58.77;100352.22;4822143;29;19924;-81
2023/02/15 05:30:11;;;;;;;;;;;;;;;0.03;58.46;100366.88;4872434;29;19948;-83
2023/02/15 05:32:40;;;;;;;;;;;;;;;0.03;58.50;100374.53;4879393;29;19916;-82
2023/02/15 05:35:16;;;;;;;;;;;;;;;0.05;58.18;100369.50;4847098;29;19932;-84
2023/02/15 05:38:21;;;;;;;;;;;;;;;0.16;58.66;100367.41;4858726;29;19935;-84
2023/02/15 05:41:35;;;;;;;;;;;;;;;0.24;58.23;100369.47;4821239;29;19935;-84
2023/02/15 05:44:38;;;;;;;;;;;;;;;0.28;57.72;100371.38;4840022;29;19931;-86
2023/02/15 05:47:09;;;;;;;;;;;;;;;0.19;57.35;100372.66;4820811;29;19925;-84
2023/02/15 05:50:02;;;;;;;;;;;;;;;0.21;58.61;100382.16;4841536;29;19924;-81
2023/02/15 05:52:48;;;;;;;;;;;;;;;0.19;57.82;100378.63;4863813;29;19935;-83
2023/02/15 05:56:02;;;;;;;;;;;;;;;0.20;57.14;100370.16;4856301;29;19943;-83
2023/02/15 06:05:58;;;;;;;;;;;;;;;0.31;57.34;100388.53;4850255;29;19924;-82
2023/02/15 06:08:24;;;;;;;;;;;;;;;0.34;57.79;100400.56;4868655;29;20050;-83
2023/02/15 06:10:50;;;;;;;;;;;;;;;0.47;57.44;100387.50;4834413;29;19956;-85
2023/02/15 06:13:31;;;;;;;;;;;;;;;;;;;;;
2023/02/15 06:15:58;;;;;;;;;;;;;;;0.42;56.90;100394.09;4850973;29;19931;-82
2023/02/15 06:18:29;;;;;;;;;;;;;;;0.38;57.34;100390.53;4854061;29;19935;-81
2023/02/15 06:20:55;;;;;;;;;;;;;;;0.42;57.52;100394.09;4856304;29;19924;-82
2023/02/15 06:23:21;;;;;;;;;;;;;;;0.36;56.96;100396.41;4872933;29;19931;-82
2023/02/15 06:25:51;;;;;;;;;;;;;;;0.38;57.04;100411.03;4855989;29;20031;-82
2023/02/15 06:28:40;;;;;;;;;;;;;;;0.33;56.81;100407.41;4858527;29;19963;-82
2023/02/15 06:31:07;;;;;;;;;;;;;;;0.35;57.04;100410.00;4875142;29;19928;-81
2023/02/15 06:33:35;;;;;;;;;;;;;;;0.12;57.14;100369.84;4874947;29;19924;-81
2023/02/15 06:36:03;;;;;;;;;;;;;;;0.38;57.35;100405.00;4858750;29;19924;-84
2023/02/15 06:38:31;;;;;;;;;;;;;;;0.38;57.03;100407.56;4874477;29;19983;-82
2023/02/15 06:40:58;;;;;;;;;;;;;;;0.43;57.83;100409.53;4841833;29;19924;-83
2023/02/15 06:43:26;;;;;;;;;;;;;;;0.40;57.16;100400.84;4856235;29;19924;-82
2023/02/15 06:46:00;;;;;;;;;;;;;;;0.39;56.63;100409.34;4840101;29;19985;-84
2023/02/15 06:48:26;;;;;;;;;;;;;;;0.34;56.93;100414.25;4835445;29;19930;-85
2023/02/15 06:50:52;;;;;;;;;;;;;;;0.34;56.70;100413.38;4841634;29;19999;-82
2023/02/15 06:53:25;;;;;;;;;;;;;;;0.33;56.97;100416.78;4872808;29;19924;-82
2023/02/15 06:56:10;;;;;;;;;;;;;;;0.34;56.50;100418.50;4874475;29;19947;-82
2023/02/15 06:58:49;;;;;;;;;;;;;;;0.39;56.91;100419.56;4861584;29;19987;-86
2023/02/15 07:01:16;;;;;;;;;;;;;;;0.28;55.96;100417.44;4848411;29;19938;-81
2023/02/15 07:03:42;;;;;;;;;;;;;;;0.33;57.38;100412.50;4881369;29;19916;-82
2023/02/15 07:06:13;;;;;;;;;;;;;;;0.28;56.20;100414.88;4868719;29;19916;-82
2023/02/15 07:08:39;;;;;;;;;;;;;;;0.28;56.67;100404.66;4840805;29;19916;-83
2023/02/15 07:13:53;;;;;;;;;;;;;;;0.38;56.74;100412.69;4868427;29;19920;-82
2023/02/15 07:16:23;;;;;;;;;;;;;;;0.44;56.32;100407.84;4853303;29;19924;-83
2023/02/15 07:18:55;;;;;;;;;;;;;;;0.42;56.89;100412.03;4869960;29;19985;-83
2023/02/15 07:21:22;;;;;;;;;;;;;;;0.43;57.02;100416.34;4885121;29;19932;-83
2023/02/15 07:23:48;;;;;;;;;;;;;;;0.60;56.62;100422.16;4863175;29;19988;-82
2023/02/15 07:26:16;;;;;;;;;;;;;;;0.67;56.27;100418.16;4859623;29;19944;-83
2023/02/15 07:28:42;;;;;;;;;;;;;;;0.62;57.07;100412.88;4863687;29;19932;-82
2023/02/15 07:31:11;;;;;;;;;;;;;;;0.59;56.39;100418.72;4884704;29;19980;-83
2023/02/15 07:33:40;;;;;;;;;;;;;;;0.72;56.97;100422.66;4868640;29;19920;-84
2023/02/15 07:36:11;;;;;;;;;;;;;;;0.75;56.59;100422.78;4857298;29;19953;-83
2023/02/15 07:38:51;;;;;;;;;;;;;;;0.84;56.35;100424.84;4871183;29;20027;-85
2023/02/15 07:41:25;;;;;;;;;;;;;;;0.98;56.21;100425.41;4854711;29;20022;-81
2023/02/15 07:43:54;;;;;;;;;;;;;;;1.10;56.47;100430.16;4871463;29;19987;-83
2023/02/15 07:46:23;;;;;;;;;;;;;;;1.31;56.96;100432.69;4852565;29;19971;-81
2023/02/15 07:48:51;;;;;;;;;;;;;;;1.48;56.30;100429.91;4837483;29;19919;-83
2023/02/15 07:51:18;;;;;;;;;;;;;;;1.68;56.47;100429.78;4870997;29;19924;-83
2023/02/15 07:54:04;;;;;;;;;;;;;;;1.87;56.31;100426.19;4873164;29;19935;-81
2023/02/15 07:56:29;;;;;;;;;;;;;;;1.98;55.80;100431.72;4839206;29;20412;-82
2023/02/15 07:59:02;;;;;;;;;;;;;;;2.17;56.14;100430.66;4872399;29;19979;-84
2023/02/15 08:04:54;;;;;;;;;;;;;;;2.32;55.86;100428.63;4838751;29;19935;-83
2023/02/15 08:07:20;;;;;;;;;;;;;;;2.35;55.10;100436.44;4870383;29;19931;-82
2023/02/15 08:09:47;;;;;;;;;;;;;;;2.34;55.55;100437.25;4836628;29;19955;-81
2023/02/15 08:12:17;;;;;;;;;;;;;;;2.51;55.24;100437.84;4870409;29;19936;-83
2023/02/15 08:14:45;;;;;;;;;;;;;;;2.33;54.45;100443.22;4871234;29;19928;-83
2023/02/15 08:23:17;;;;;;;;;;;;;;;3.10;54.30;100441.47;4852978;29;19976;-82
2023/02/15 08:26:04;;;;;;;;;;;;;;;3.14;54.32;100441.59;4855436;29;19916;-83
2023/02/15 08:28:39;;;;;;;;;;;;;;;3.42;54.75;100439.03;4855042;29;19924;-84
2023/02/15 08:31:10;;;;;;;;;;;;;;;3.47;53.79;100442.59;4869602;29;19911;-82
2023/02/15 08:33:37;;;;;;;;;;;;;;;3.31;54.11;100442.16;4837910;29;19928;-85
2023/02/15 08:36:11;;;;;;;;;;;;;;;3.16;53.54;100451.97;4838868;29;19924;-85
2023/02/15 08:38:43;;;;;;;;;;;;;;;3.08;53.66;100456.88;4824574;29;20038;-89
2023/02/15 08:41:34;;;;;;;;;;;;;;;3.08;54.42;100458.56;4852595;29;19928;-84
2023/02/15 08:44:01;;;;;;;;;;;;;;;3.06;53.49;100455.06;4871054;29;19938;-86
2023/02/15 08:46:28;;;;;;;;;;;;;;;2.86;53.19;100470.72;4870737;29;20357;-83
2023/02/15 08:48:57;;;;;;;;;;;;;;;2.68;53.15;100469.28;4840354;29;19924;-87
2023/02/15 08:51:24;;;;;;;;;;;;;;;2.60;53.38;100480.97;4854420;29;19924;-84
2023/02/15 08:53:51;;;;;;;;;;;;;;;2.68;53.49;100469.28;4869650;29;20448;-83
2023/02/15 08:56:21;;;;;;;;;;;;;;;2.81;53.81;100467.09;4837744;29;19949;-83
2023/02/15 08:58:52;;;;;;;;;;;;;;;2.90;53.77;100471.66;4854260;29;20410;-84
2023/02/15 09:01:22;;;;;;;;;;;;;;;2.85;53.22;100471.53;4862302;29;19924;-82
2023/02/15 09:03:49;;;;;;;;;;;;;;;2.81;53.28;100472.25;4869145;29;20010;-82
2023/02/15 09:06:16;;;;;;;;;;;;;;;2.73;52.78;100464.28;4868813;29;20389;-83
2023/02/15 09:08:43;;;;;;;;;;;;;;;2.68;53.14;100471.84;4869550;29;19931;-84
2023/02/15 09:11:11;;;;;;;;;;;;;;;2.62;53.04;100471.63;4845630;29;19931;-84
2023/02/15 09:13:41;;;;;;;;;;;;;;;2.50;52.96;100477.22;4850935;29;19939;-82
2023/02/15 09:16:30;;;;;;;;;;;;;;;2.50;53.62;100464.38;4845222;29;19924;-84
2023/02/15 09:19:04;;;;;;;;;;;;;;;2.67;53.50;100470.09;4847929;29;20041;-83
2023/02/15 09:21:31;;;;;;;;;;;;;;;2.60;53.27;100464.69;4856015;29;19924;-84
2023/02/15 09:24:03;;;;;;;;;;;;;;;2.60;52.92;100480.13;4857400;29;19931;-85
2023/02/15 09:26:30;;;;;;;;;;;;;;;2.58;53.30;100480.03;4871137;29;20271;-83
2023/02/15 09:28:57;;;;;;;;;;;;;;;2.53;53.48;100484.19;4873457;29;19947;-85
2023/02/15 09:32:01;;;;;;;;;;;;;;;2.53;53.20;100482.47;4864213;29;19995;-83
2023/02/15 09:34:30;;;;;;;;;;;;;;;2.54;53.00;100478.19;4878054;29;19947;-83
2023/02/15 09:36:57;;;;;;;;;;;;;;;2.56;52.95;100479.13;4868107;29;19932;-83
2023/02/15 09:39:28;;;;;;;;;;;;;;;2.50;52.79;100487.50;4867279;29;19916;-83
2023/02/15 09:42:02;;;;;;;;;;;;;;;2.53;52.81;100489.31;4867868;29;19916;-84
2023/02/15 09:44:41;;;;;;;;;;;;;;;2.55;53.23;100501.38;4848595;29;20394;-80
2023/02/15 09:47:13;;;;;;;;;;;;;;;2.54;53.24;100488.47;4847533;29;19928;-83
2023/02/15 09:49:51;;;;;;;;;;;;;;;2.52;53.30;100495.28;4862474;29;20035;-83
2023/02/15 09:52:28;;;;;;;;;;;;;;;2.61;53.14;100495.56;4867226;29;19934;-83
2023/02/15 09:55:13;;;;;;;;;;;;;;;2.53;52.70;100503.03;4869979;29;19948;-83
2023/02/15 09:57:52;;;;;;;;;;;;;;;2.46;52.33;100501.03;4869270;29;20035;-81
2023/02/15 10:00:28;;;;;;;;;;;;;;;2.46;52.80;100506.19;4882455;29;19988;-82
2023/02/15 10:03:04;;;;;;;;;;;;;;;2.47;52.89;100507.06;4862653;29;20353;-82
2023/02/15 10:05:47;;;;;;;;;;;;;;;2.33;52.61;100512.56;4872368;29;19935;-83
2023/02/15 10:08:31;;;;;;;;;;;;;;;2.19;52.69;100512.09;4875115;29;19992;-84
2023/02/15 10:14:02;;;;;;;;;;;;;;;2.32;52.99;100523.66;4872927;29;20015;-82
2023/02/15 10:16:36;;;;;;;;;;;;;;;2.39;52.79;100523.09;4844810;29;19928;-85
2023/02/15 10:19:28;;;;;;;;;;;;;;;2.49;52.61;100516.56;4874597;29;20023;-86
2023/02/15 10:22:14;;;;;;;;;;;;;;;2.37;52.54;100526.44;4859899;29;19999;-83
2023/02/15 10:24:59;;;;;;;;;;;;;;;2.40;52.71;100531.69;4843434;29;19938;-83
2023/02/15 10:27:26;;;;;;;;;;;;;;;2.34;52.34;100528.88;4840887;29;19987;-84
2023/02/15 10:30:13;;;;;;;;;;;;;;;2.31;52.60;100532.22;4868675;29;19988;-84
2023/02/15 10:32:59;;;;;;;;;;;;;;;2.36;52.27;100535.81;4861951;29;19932;-84
2023/02/15 10:36:05;;;;;;;;;;;;;;;2.45;52.62;100531.84;4836768;29;19953;-86
2023/02/15 10:38:31;;;;;;;;;;;;;;;2.60;52.64;100528.94;4820450;29;20415;-84
2023/02/15 10:41:07;;;;;;;;;;;;;;;2.66;52.20;100519.75;4852161;29;19925;-84
2023/02/15 10:43:32;;;;;;;;;;;;;;;2.63;52.34;100527.34;4865098;29;19924;-84
2023/02/15 10:46:15;;;;;;;;;;;;;;;2.60;52.35;100521.22;4871357;29;19956;-86
2023/02/15 10:48:59;;;;;;;;;;;;;;;2.71;52.14;100528.50;4850751;29;20440;-86
2023/02/15 10:51:30;;;;;;;;;;;;;;;2.62;51.03;100535.00;4833414;29;19939;-84
2023/02/15 10:53:59;;;;;;;;;;;;;;;2.56;51.38;100533.06;4865417;29;20353;-84
2023/02/15 10:56:32;;;;;;;;;;;;;;;2.19;51.16;100500.94;4833281;29;19924;-86
2023/02/15 10:59:17;;;;;;;;;;;;;;;2.25;51.39;100552.53;4848801;29;19932;-85
2023/02/15 11:02:22;;;;;;;;;;;;;;;2.19;51.31;100554.88;4830044;29;19936;-85
2023/02/15 11:04:51;;;;;;;;;;;;;;;2.13;51.64;100552.06;4829288;29;19931;-83
2023/02/15 11:07:17;;;;;;;;;;;;;;;2.06;51.12;100559.56;4845739;29;20373;-87
2023/02/15 11:09:56;;;;;;;;;;;;;;;2.08;51.84;100555.34;4849550;29;19963;-83
2023/02/15 11:12:42;;;;;;;;;;;;;;;2.20;51.46;100543.78;4833169;29;19931;-87
2023/02/15 11:15:18;;;;;;;;;;;;;;;2.28;51.50;100556.91;4850943;29;19924;-85
2023/02/15 11:18:15;;;;;;;;;;;;;;;2.37;51.32;100563.25;4834128;29;19964;-85
2023/02/15 11:21:20;;;;;;;;;;;;;;;2.37;51.25;100564.97;4848480;29;20030;-86
2023/02/15 11:24:22;;;;;;;;;;;;;;;;;;;;;
2023/02/15 11:27:08;;;;;;;;;;;;;;;1.97;51.16;100572.03;4847958;29;19940;-85
2023/02/15 11:29:52;;;;;;;;;;;;;;;2.01;51.33;100580.72;4863399;29;20019;-83
2023/02/15 11:35:48;;;;;;;;;;;;;;;1.92;51.52;100583.81;4834644;29;19934;-86
2023/02/15 11:38:32;;;;;;;;;;;;;;;1.85;51.44;100576.72;4854565;29;20497;-88
2023/02/15 11:41:07;;;;;;;;;;;;;;;1.83;51.42;100580.91;4862498;29;19916;-86
2023/02/15 11:43:36;;;;;;;;;;;;;;;1.85;51.69;100592.09;4862890;29;19932;-84
2023/02/15 11:46:03;;;;;;;;;;;;;;;1.88;51.68;100592.19;4820164;29;19924;-85
2023/02/15 11:48:47;;;;;;;;;;;;;;;1.85;50.97;100592.09;4848993;29;19959;-82
2023/02/15 11:51:16;;;;;;;;;;;;;;;1.90;51.61;100600.84;4831578;29;19928;-86
2023/02/15 11:53:45;;;;;;;;;;;;;;;1.91;51.56;100598.34;4849581;29;19940;-88
2023/02/15 11:56:36;;;;;;;;;;;;;;;1.94;51.53;100603.59;4865348;29;19924;-85
2023/02/15 11:59:47;;;;;;;;;;;;;;;2.00;51.25;100602.97;4961013;24;20020;-83
2023/02/15 12:02:17;;;;;;;;;;;;;;;2.05;51.64;100604.03;4814047;29;19969;-85
2023/02/15 12:04:51;;;;;;;;;;;;;;;1.87;51.00;100611.00;4827936;29;19983;-83
2023/02/15 12:07:35;;;;;;;;;;;;;;;1.80;50.68;100605.63;4847067;29;19966;-84
2023/02/15 12:10:11;;;;;;;;;;;;;;;1.77;51.61;100615.78;4830493;29;19924;-86
2023/02/15 12:12:43;;;;;;;;;;;;;;;1.76;51.87;100621.72;4832401;29;20407;-85
2023/02/15 12:15:16;;;;;;;;;;;;;;;1.84;51.42;100616.88;4831469;29;19967;-84
2023/02/15 12:17:55;;;;;;;;;;;;;;;1.85;51.06;100621.19;4815601;29;19950;-85
2023/02/15 12:20:33;;;;;;;;;;;;;;;1.78;50.86;100622.66;4830933;29;19924;-86
2023/02/15 12:23:40;;;;;;;;;;;;;;;1.62;50.51;100620.28;4846693;29;20408;-85
2023/02/15 12:27:00;;;;;;;;;;;;;;;1.56;51.29;100628.59;4800748;29;19925;-86
2023/02/15 12:29:29;;;;;;;;;;;;;;;1.60;50.67;100642.44;4829210;29;20018;-84
2023/02/15 12:32:09;;;;;;;;;;;;;;;1.44;50.65;100635.78;4825783;29;19982;-86
2023/02/15 12:35:22;;;;;;;;;;;;;;;1.34;50.34;100642.22;4828144;29;20042;-87
2023/02/15 12:38:03;;;;;;;;;;;;;;;1.36;51.34;100640.63;4829327;29;19964;-84
2023/02/15 12:40:30;;;;;;;;;;;;;;;1.35;50.96;100652.53;4827953;29;20406;-86
2023/02/15 12:42:56;;;;;;;;;;;;;;;1.37;50.77;100655.19;4844630;29;20064;-83
2023/02/15 12:45:32;;;;;;;;;;;;;;;1.26;50.46;100654.72;4843681;29;20011;-87
2023/02/15 12:48:20;;;;;;;;;;;;;;;1.14;50.56;100665.34;4850853;29;20019;-82
2023/02/15 12:50:47;;;;;;;;;;;;;;;1.13;50.53;100663.59;4854268;29;19931;-83
2023/02/15 12:53:31;;;;;;;;;;;;;;;1.08;50.77;100664.19;4820003;29;19928;-82
2023/02/15 12:56:03;;;;;;;;;;;;;;;1.02;50.92;100670.81;4854821;29;19924;-82
2023/02/15 12:58:34;;;;;;;;;;;;;;;0.99;51.03;100665.53;4845012;29;19935;-81
2023/02/15 13:01:29;;;;;;;;;;;;;;;1.01;50.69;100683.53;4801486;29;19944;-84
2023/02/15 13:04:05;;;;;;;;;;;;;;;0.81;50.36;100677.53;4825558;29;19929;-84
2023/02/15 13:06:36;;;;;;;;;;;;;;;0.73;51.11;100679.78;4831400;29;19936;-84
2023/02/15 13:09:16;;;;;;;;;;;;;;;0.76;50.61;100674.78;4816036;29;19949;-83
2023/02/15 13:11:45;;;;;;;;;;;;;;;0.82;50.37;100676.75;4831835;29;19929;-82
2023/02/15 13:14:21;;;;;;;;;;;;;;;0.85;50.56;100684.56;4800547;29;19936;-85
2023/02/15 13:16:49;;;;;;;;;;;;;;;0.85;50.34;100688.00;4800086;29;19954;-81
2023/02/15 13:19:34;;;;;;;;;;;;;;;0.80;50.64;100684.34;4811849;29;19932;-81
2023/02/15 13:22:06;;;;;;;;;;;;;;;0.83;50.88;100697.31;4805133;29;20382;-85
2023/02/15 13:24:46;;;;;;;;;;;;;;;0.86;51.08;100697.44;4825423;29;19925;-83
2023/02/15 13:34:35;;;;;;;;;;;;;;;0.84;50.42;100709.31;4754151;29;20637;-84
2023/02/15 13:37:10;;;;;;;;;;;;;;;0.84;50.39;100711.00;4812946;29;19932;-83
2023/02/15 13:39:39;;;;;;;;;;;;;;;0.82;50.67;100705.78;4818396;29;19932;-84
2023/02/15 13:42:32;;;;;;;;;;;;;;;0.81;50.81;100713.44;4808539;29;20037;-83
2023/02/15 13:45:22;;;;;;;;;;;;;;;0.79;51.14;100720.16;4796808;29;19931;-81
2023/02/15 13:51:34;;;;;;;;;;;;;;;0.69;50.04;100721.44;4827272;29;19972;-82
2023/02/15 13:54:24;;;;;;;;;;;;;;;0.62;50.80;100729.63;4813298;29;19924;-82
2023/02/15 13:58:12;;;;;;;;;;;;;;;0.51;50.89;100722.34;4787547;29;19935;-85
2023/02/15 14:00:46;;;;;;;;;;;;;;;0.52;50.68;100733.44;4800124;29;19936;-85
2023/02/15 14:03:55;;;;;;;;;;;;;;;0.41;50.31;100743.19;4825749;29;19931;-84
2023/02/15 14:06:46;;;;;;;;;;;;;;;0.45;50.41;100739.97;4793797;29;19967;-85
2023/02/15 14:09:30;;;;;;;;;;;;;;;0.47;50.65;100747.72;4821563;29;19959;-84
2023/02/15 14:11:59;;;;;;;;;;;;;;;0.43;51.12;100744.13;4816195;29;19929;-83
2023/02/15 14:18:00;;;;;;;;;;;;;;;0.36;51.13;100752.31;4826908;29;19932;-83
2023/02/15 14:20:45;;;;;;;;;;;;;;;0.27;50.34;100752.75;4825127;29;19992;-84
2023/02/15 14:24:02;;;;;;;;;;;;;;;0.22;50.75;100757.69;4824214;29;20020;-85
2023/02/15 14:26:47;;;;;;;;;;;;;;;0.22;51.14;100762.78;4808552;29;20083;-86
2023/02/15 14:29:20;;;;;;;;;;;;;;;0.23;51.54;100759.44;4782871;29;19920;-84
2023/02/15 14:31:53;;;;;;;;;;;;;;;0.22;50.70;100770.47;4798482;29;19968;-86
2023/02/15 14:34:19;;;;;;;;;;;;;;;0.24;50.67;100761.19;4800117;29;19955;-87
2023/02/15 14:36:45;;;;;;;;;;;;;;;0.21;51.40;100761.03;4824414;29;20054;-82
2023/02/15 14:42:16;;;;;;;;;;;;;;;0.20;51.61;100772.06;4811685;29;19975;-83
2023/02/15 14:44:48;;;;;;;;;;;;;;;0.12;50.58;100770.81;4836664;29;20027;-84
2023/02/15 14:47:27;;;;;;;;;;;;;;;0.13;51.05;100775.13;4812145;29;20067;-87
2023/02/15 14:49:54;;;;;;;;;;;;;;;0.11;51.17;100779.31;4795082;29;20365;-84
2023/02/15 14:56:10;;;;;;;;;;;;;;;0.05;50.92;100784.13;4808119;29;19925;-85
2023/02/15 14:59:37;;;;;;;;;;;;;;;0.03;50.68;100790.84;4805083;29;20037;-84
2023/02/15 15:02:10;;;;;;;;;;;;;;;0.01;51.49;100797.56;4803919;29;19924;-86
2023/02/15 15:04:45;;;;;;;;;;;;;;;-0.09;51.08;100798.78;4826949;29;19981;-85
2023/02/15 15:07:11;;;;;;;;;;;;;;;-0.12;51.58;100796.06;4811641;29;19925;-85
2023/02/15 15:09:39;;;;;;;;;;;;;;;-0.16;51.03;100801.03;4834211;29;19925;-86